Time;durP1;ratioP1;P1;durP2;ratioP2;P2;SDS_P1;SDS_P2;PMS_P1;PMS_P2;Temp;Humidity;BMP_temperature;BMP_pressure;BME280_temperature;BME280_humidity;BME280_pressure;Samples;Min_cycle;Max_cycle;Signal;HPM_P1;HPM_P2
2024/03/25 00:00:59;;;;;;;11.57;4.25;;;;;;;;;;2059073;28;20034;-50
2024/03/25 00:02:00;;;;;;;11.85;4.40;;;;;;;;;;2059680;28;20113;-52
2024/03/25 00:03:03;;;;;;;13.75;4.03;;;;;;;;;;2058085;28;20359;-53
2024/03/25 00:04:04;;;;;;;11.57;4.32;;;;;;;;;;2057256;28;20034;-53
2024/03/25 00:05:09;;;;;;;17.45;4.40;;;;;;;;;;2056982;28;20167;-53
2024/03/25 00:06:11;;;;;;;16.65;4.03;;;;;;;;;;2057835;28;20015;-54
2024/03/25 00:07:12;;;;;;;13.57;4.80;;;;;;;;;;2057529;28;20015;-53
2024/03/25 00:08:13;;;;;;;10.70;4.10;;;;;;;;;;2060238;28;20104;-54
2024/03/25 00:09:15;;;;;;;14.00;4.20;;;;;;;;;;2059813;28;20049;-53
2024/03/25 00:10:16;;;;;;;13.70;3.97;;;;;;;;;;2063066;28;20026;-53
2024/03/25 00:11:17;;;;;;;13.25;4.32;;;;;;;;;;2058918;28;20076;-53
2024/03/25 00:12:19;;;;;;;15.63;3.72;;;;;;;;;;2057158;28;20030;-54
2024/03/25 00:13:20;;;;;;;12.55;3.97;;;;;;;;;;2060082;28;20023;-50
2024/03/25 00:14:21;;;;;;;11.52;3.65;;;;;;;;;;2060953;28;20098;-50
2024/03/25 00:15:23;;;;;;;12.32;4.03;;;;;;;;;;2059705;28;20027;-53
2024/03/25 00:16:25;;;;;;;20.17;4.63;;;;;;;;;;2057575;28;20027;-51
2024/03/25 00:17:26;;;;;;;11.75;3.42;;;;;;;;;;2056526;28;20043;-49
2024/03/25 00:18:27;;;;;;;13.00;4.35;;;;;;;;;;2063397;28;20026;-49
2024/03/25 00:19:30;;;;;;;15.77;4.47;;;;;;;;;;2061151;28;20046;-50
2024/03/25 00:20:31;;;;;;;10.13;4.25;;;;;;;;;;2058777;28;20015;-50
2024/03/25 00:21:33;;;;;;;12.43;3.97;;;;;;;;;;2060032;28;20027;-49
2024/03/25 00:22:34;;;;;;;10.70;3.83;;;;;;;;;;2051953;28;20027;-50
2024/03/25 00:23:35;;;;;;;8.57;3.17;;;;;;;;;;2051225;28;20395;-50
2024/03/25 00:24:37;;;;;;;12.25;3.22;;;;;;;;;;2058966;28;20050;-51
2024/03/25 00:25:38;;;;;;;11.52;3.60;;;;;;;;;;2060932;28;20015;-49
2024/03/25 00:26:39;;;;;;;14.20;3.78;;;;;;;;;;2057525;28;20390;-49
2024/03/25 00:27:41;;;;;;;13.38;3.70;;;;;;;;;;2062482;28;20382;-50
2024/03/25 00:28:42;;;;;;;12.10;3.75;;;;;;;;;;2059309;28;20030;-49
2024/03/25 00:29:44;;;;;;;15.02;3.75;;;;;;;;;;2058275;28;20062;-50
2024/03/25 00:30:45;;;;;;;10.35;3.25;;;;;;;;;;2059084;28;20062;-51
2024/03/25 00:31:47;;;;;;;12.05;3.75;;;;;;;;;;2059451;28;20026;-48
2024/03/25 00:32:48;;;;;;;11.60;3.55;;;;;;;;;;2063486;28;20026;-49
2024/03/25 00:33:49;;;;;;;10.18;3.33;;;;;;;;;;2058711;28;20038;-50
2024/03/25 00:34:51;;;;;;;10.40;3.90;;;;;;;;;;2062755;28;20022;-50
2024/03/25 00:35:52;;;;;;;13.65;3.67;;;;;;;;;;2058686;28;20054;-50
2024/03/25 00:36:54;;;;;;;13.57;3.45;;;;;;;;;;2059740;28;20379;-49
2024/03/25 00:37:55;;;;;;;11.85;3.80;;;;;;;;;;2058288;28;20068;-49
2024/03/25 00:38:56;;;;;;;9.30;3.00;;;;;;;;;;2060240;28;20192;-49
2024/03/25 00:39:57;;;;;;;11.30;3.30;;;;;;;;;;2059510;28;20042;-49
2024/03/25 00:40:59;;;;;;;10.02;3.35;;;;;;;;;;2050893;28;20019;-50
2024/03/25 00:42:00;;;;;;;9.48;3.90;;;;;;;;;;2059691;28;20600;-49
2024/03/25 00:43:02;;;;;;;15.05;3.70;;;;;;;;;;2063748;28;20023;-50
2024/03/25 00:44:03;;;;;;;9.25;3.35;;;;;;;;;;2059063;28;20017;-50
2024/03/25 00:45:05;;;;;;;18.25;3.63;;;;;;;;;;2062380;28;20018;-49
2024/03/25 00:46:07;;;;;;;10.65;3.40;;;;;;;;;;2063918;28;20508;-51
2024/03/25 00:47:08;;;;;;;14.98;4.15;;;;;;;;;;2060020;28;20023;-49
2024/03/25 00:48:09;;;;;;;11.13;3.20;;;;;;;;;;2061825;28;20018;-49
2024/03/25 00:49:11;;;;;;;12.65;3.45;;;;;;;;;;2058643;28;20030;-50
2024/03/25 00:50:12;;;;;;;9.82;3.05;;;;;;;;;;2057837;28;20026;-49
2024/03/25 00:51:13;;;;;;;8.57;3.53;;;;;;;;;;2062843;28;20041;-50
2024/03/25 00:52:15;;;;;;;14.10;3.80;;;;;;;;;;2060524;28;20014;-51
2024/03/25 00:53:16;;;;;;;10.77;3.67;;;;;;;;;;2050752;28;20063;-49
2024/03/25 00:54:17;;;;;;;16.38;3.88;;;;;;;;;;2054421;28;20027;-50
2024/03/25 00:55:19;;;;;;;10.80;3.35;;;;;;;;;;2063542;28;20117;-50
2024/03/25 00:56:20;;;;;;;10.32;3.42;;;;;;;;;;2060792;28;20019;-50
2024/03/25 00:57:22;;;;;;;10.23;4.00;;;;;;;;;;2062806;28;20049;-50
2024/03/25 00:58:23;;;;;;;9.90;3.78;;;;;;;;;;2053981;28;20459;-49
2024/03/25 00:59:24;;;;;;;6.30;3.05;;;;;;;;;;2048472;28;20027;-50
2024/03/25 01:00:25;;;;;;;12.52;3.97;;;;;;;;;;2062436;28;20058;-49
2024/03/25 01:01:27;;;;;;;10.70;3.45;;;;;;;;;;2057503;28;20609;-49
2024/03/25 01:02:28;;;;;;;10.38;3.28;;;;;;;;;;2058921;28;20042;-49
2024/03/25 01:03:30;;;;;;;13.23;3.45;;;;;;;;;;2058032;28;20027;-49
2024/03/25 01:04:31;;;;;;;9.73;3.50;;;;;;;;;;2058687;28;20042;-49
2024/03/25 01:05:33;;;;;;;13.35;3.80;;;;;;;;;;2057355;28;20109;-49
2024/03/25 01:06:34;;;;;;;12.60;3.75;;;;;;;;;;2058583;28;20133;-50
2024/03/25 01:07:36;;;;;;;15.48;3.88;;;;;;;;;;2059204;28;20042;-49
2024/03/25 01:08:37;;;;;;;11.45;3.42;;;;;;;;;;2057004;28;20058;-49
2024/03/25 01:09:38;;;;;;;9.80;3.10;;;;;;;;;;2055832;28;20118;-51
2024/03/25 01:10:41;;;;;;;15.23;3.40;;;;;;;;;;2058237;28;20102;-50
2024/03/25 01:11:42;;;;;;;12.30;3.45;;;;;;;;;;2053592;28;20027;-49
2024/03/25 01:12:43;;;;;;;8.05;3.15;;;;;;;;;;2060698;28;20113;-50
2024/03/25 01:13:46;;;;;;;16.83;3.53;;;;;;;;;;2063254;28;20393;-50
2024/03/25 01:14:47;;;;;;;8.52;2.92;;;;;;;;;;2061576;28;20018;-50
2024/03/25 01:15:48;;;;;;;8.57;3.33;;;;;;;;;;2061805;28;20106;-50
2024/03/25 01:16:50;;;;;;;12.38;3.75;;;;;;;;;;2061497;28;20021;-49
2024/03/25 01:17:51;;;;;;;10.70;3.47;;;;;;;;;;2059302;28;20022;-49
2024/03/25 01:18:52;;;;;;;10.63;2.92;;;;;;;;;;2061491;28;20112;-50
2024/03/25 01:19:54;;;;;;;8.10;3.00;;;;;;;;;;2058169;28;20122;-49
2024/03/25 01:20:55;;;;;;;12.82;3.35;;;;;;;;;;2050838;28;20019;-49
2024/03/25 01:21:56;;;;;;;13.82;3.38;;;;;;;;;;2060835;28;20022;-50
2024/03/25 01:22:58;;;;;;;11.63;3.67;;;;;;;;;;2063075;28;20068;-49
2024/03/25 01:23:59;;;;;;;10.82;3.55;;;;;;;;;;2064293;28;20022;-49
2024/03/25 01:25:00;;;;;;;10.82;3.55;;;;;;;;;;2059961;28;20088;-49
2024/03/25 01:26:02;;;;;;;9.63;3.35;;;;;;;;;;2061268;28;20033;-49
2024/03/25 01:27:03;;;;;;;8.32;3.15;;;;;;;;;;2061413;28;20019;-49
2024/03/25 01:28:04;;;;;;;11.75;3.45;;;;;;;;;;2057982;28;20038;-50
2024/03/25 01:29:07;;;;;;;12.48;3.30;;;;;;;;;;2062724;28;20057;-50
2024/03/25 01:30:08;;;;;;;8.52;3.08;;;;;;;;;;2059663;28;20413;-50
2024/03/25 01:31:10;;;;;;;9.30;2.88;;;;;;;;;;2062465;28;20388;-49
2024/03/25 01:32:11;;;;;;;8.82;3.50;;;;;;;;;;2059393;28;20107;-50
2024/03/25 01:33:13;;;;;;;13.43;3.53;;;;;;;;;;2058613;28;20066;-49
2024/03/25 01:34:14;;;;;;;10.20;3.03;;;;;;;;;;2059127;28;20038;-50
2024/03/25 01:35:15;;;;;;;8.82;3.10;;;;;;;;;;2058321;28;20106;-49
2024/03/25 01:36:18;;;;;;;9.95;2.60;;;;;;;;;;2058070;28;20113;-50
2024/03/25 01:37:19;;;;;;;10.27;2.72;;;;;;;;;;2064384;28;20015;-51
2024/03/25 01:38:20;;;;;;;11.15;2.47;;;;;;;;;;2060637;28;20402;-52
2024/03/25 01:39:22;;;;;;;7.20;3.28;;;;;;;;;;2056582;28;20026;-50
2024/03/25 01:40:23;;;;;;;8.82;3.25;;;;;;;;;;2058701;28;20031;-49
2024/03/25 01:41:25;;;;;;;9.85;3.35;;;;;;;;;;2060242;28;20102;-49
2024/03/25 01:42:26;;;;;;;9.23;3.10;;;;;;;;;;2060027;28;20023;-50
2024/03/25 01:43:28;;;;;;;12.18;3.35;;;;;;;;;;2059040;28;20026;-49
2024/03/25 01:44:29;;;;;;;11.52;3.08;;;;;;;;;;2056656;28;20818;-49
2024/03/25 01:45:33;;;;;;;7.65;2.65;;;;;;;;;;2062949;28;20034;-48
2024/03/25 01:46:34;;;;;;;12.95;3.75;;;;;;;;;;2059223;28;20154;-49
2024/03/25 01:47:35;;;;;;;10.02;3.15;;;;;;;;;;2059564;28;20030;-49
2024/03/25 01:48:37;;;;;;;10.40;3.05;;;;;;;;;;2063121;28;20030;-50
2024/03/25 01:49:38;;;;;;;10.75;3.42;;;;;;;;;;2059748;28;20062;-49
2024/03/25 01:50:42;;;;;;;13.32;3.30;;;;;;;;;;2057806;28;20034;-50
2024/03/25 01:51:43;;;;;;;10.32;3.30;;;;;;;;;;2062320;28;20450;-49
2024/03/25 01:52:45;;;;;;;6.82;2.65;;;;;;;;;;2057921;28;20452;-49
2024/03/25 01:53:46;;;;;;;10.93;2.65;;;;;;;;;;2061035;28;20417;-49
2024/03/25 01:54:49;;;;;;;7.85;2.85;;;;;;;;;;2058402;28;20088;-49
2024/03/25 01:55:54;;;;;;;12.70;2.95;;;;;;;;;;2060711;28;20030;-54
2024/03/25 01:56:57;;;;;;;8.13;3.13;;;;;;;;;;2061038;28;20058;-50
2024/03/25 01:57:58;;;;;;;7.22;2.65;;;;;;;;;;2058791;28;20046;-49
2024/03/25 01:59:01;;;;;;;12.32;3.03;;;;;;;;;;2062016;28;20030;-50
2024/03/25 02:00:02;;;;;;;10.90;2.97;;;;;;;;;;2049711;28;20034;-48
2024/03/25 02:01:04;;;;;;;10.65;2.92;;;;;;;;;;2051616;28;20034;-50
2024/03/25 02:02:07;;;;;;;10.60;2.38;;;;;;;;;;2060614;28;20048;-50
2024/03/25 02:03:09;;;;;;;6.35;2.40;;;;;;;;;;2061175;28;20031;-49
2024/03/25 02:04:12;;;;;;;7.25;2.50;;;;;;;;;;2063575;28;20027;-50
2024/03/25 02:05:16;;;;;;;7.43;2.80;;;;;;;;;;2053451;28;20012;-50
2024/03/25 02:06:18;;;;;;;10.82;2.45;;;;;;;;;;2059141;28;20049;-51
2024/03/25 02:07:19;;;;;;;14.90;3.45;;;;;;;;;;2057285;28;20038;-49
2024/03/25 02:08:21;;;;;;;12.45;3.78;;;;;;;;;;2060924;28;20030;-50
2024/03/25 02:09:23;;;;;;;14.30;2.85;;;;;;;;;;2061061;28;20106;-50
2024/03/25 02:10:24;;;;;;;10.20;2.75;;;;;;;;;;2057581;28;20101;-49
2024/03/25 02:11:26;;;;;;;14.77;3.00;;;;;;;;;;2061666;28;20019;-49
2024/03/25 02:12:28;;;;;;;12.15;3.00;;;;;;;;;;2063038;28;20036;-49
2024/03/25 02:13:29;;;;;;;10.20;2.92;;;;;;;;;;2060610;28;20046;-49
2024/03/25 02:14:31;;;;;;;13.38;3.35;;;;;;;;;;2059675;28;20037;-49
2024/03/25 02:15:34;;;;;;;8.07;2.58;;;;;;;;;;2061161;28;20015;-50
2024/03/25 02:16:35;;;;;;;10.90;2.88;;;;;;;;;;2063551;28;20022;-49
2024/03/25 02:17:37;;;;;;;9.82;2.50;;;;;;;;;;2058314;28;20026;-49
2024/03/25 02:18:38;;;;;;;9.40;2.45;;;;;;;;;;2058887;28;20027;-50
2024/03/25 02:19:40;;;;;;;7.68;2.45;;;;;;;;;;2059270;28;20023;-51
2024/03/25 02:20:41;;;;;;;11.63;2.80;;;;;;;;;;2060825;28;20644;-51
2024/03/25 02:21:43;;;;;;;13.15;2.80;;;;;;;;;;2058740;28;20098;-51
2024/03/25 02:22:44;;;;;;;11.95;3.20;;;;;;;;;;2058802;28;20537;-51
2024/03/25 02:23:46;;;;;;;9.80;3.00;;;;;;;;;;2062028;28;20026;-52
2024/03/25 02:24:50;;;;;;;7.50;2.65;;;;;;;;;;2061622;28;20023;-49
2024/03/25 02:25:52;;;;;;;9.20;2.85;;;;;;;;;;2056289;28;20053;-49
2024/03/25 02:26:53;;;;;;;13.60;3.42;;;;;;;;;;2056316;28;20617;-50
2024/03/25 02:27:56;;;;;;;7.68;2.67;;;;;;;;;;2059684;28;20011;-51
2024/03/25 02:28:57;;;;;;;8.63;2.53;;;;;;;;;;2062528;28;20457;-49
2024/03/25 02:30:02;;;;;;;11.60;3.08;;;;;;;;;;2063041;28;20036;-50
2024/03/25 02:31:04;;;;;;;7.30;3.00;;;;;;;;;;2060972;28;20026;-50
2024/03/25 02:32:06;;;;;;;12.38;3.25;;;;;;;;;;2061343;28;20529;-50
2024/03/25 02:33:08;;;;;;;10.02;3.10;;;;;;;;;;2058246;28;20031;-50
2024/03/25 02:34:09;;;;;;;11.65;3.40;;;;;;;;;;2063627;28;20018;-50
2024/03/25 02:35:12;;;;;;;6.50;2.45;;;;;;;;;;2063813;28;20026;-49
2024/03/25 02:36:14;;;;;;;7.50;2.58;;;;;;;;;;2062552;28;20425;-50
2024/03/25 02:37:15;;;;;;;7.80;2.75;;;;;;;;;;2061104;28;20046;-52
2024/03/25 02:38:18;;;;;;;8.35;2.72;;;;;;;;;;2060113;28;20069;-53
2024/03/25 02:39:20;;;;;;;9.75;2.92;;;;;;;;;;2060693;28;20061;-53
2024/03/25 02:40:22;;;;;;;11.55;2.92;;;;;;;;;;2064433;28;20034;-52
2024/03/25 02:41:24;;;;;;;8.43;3.00;;;;;;;;;;2062299;28;20529;-54
2024/03/25 02:42:28;;;;;;;10.85;3.25;;;;;;;;;;2061428;28;20031;-54
2024/03/25 02:43:30;;;;;;;11.65;3.45;;;;;;;;;;2061430;28;20027;-53
2024/03/25 02:44:32;;;;;;;13.07;3.75;;;;;;;;;;2059801;28;20414;-50
2024/03/25 02:45:33;;;;;;;10.32;3.10;;;;;;;;;;2060498;28;20034;-53
2024/03/25 02:46:36;;;;;;;9.85;3.03;;;;;;;;;;2054687;28;20123;-53
2024/03/25 02:47:37;;;;;;;6.97;2.78;;;;;;;;;;2059259;28;20031;-52
2024/03/25 02:48:39;;;;;;;8.15;2.92;;;;;;;;;;2061953;28;20038;-52
2024/03/25 02:49:40;;;;;;;9.55;3.17;;;;;;;;;;2061373;28;20034;-53
2024/03/25 02:50:41;;;;;;;12.65;3.13;;;;;;;;;;2062838;28;20033;-51
2024/03/25 02:51:43;;;;;;;9.90;3.22;;;;;;;;;;2059535;28;20434;-52
2024/03/25 02:52:44;;;;;;;10.35;3.03;;;;;;;;;;2061157;28;20493;-52
2024/03/25 02:53:46;;;;;;;11.13;2.90;;;;;;;;;;2059964;28;20026;-52
2024/03/25 02:54:47;;;;;;;9.63;3.00;;;;;;;;;;2052397;28;20139;-51
2024/03/25 02:55:48;;;;;;;12.68;3.03;;;;;;;;;;2060722;28;20400;-51
2024/03/25 02:56:50;;;;;;;14.23;3.08;;;;;;;;;;2063396;28;20494;-51
2024/03/25 02:57:51;;;;;;;9.23;3.25;;;;;;;;;;2051087;28;20146;-52
2024/03/25 02:58:52;;;;;;;10.23;3.08;;;;;;;;;;2057877;28;20050;-51
2024/03/25 02:59:53;;;;;;;9.48;2.72;;;;;;;;;;2058264;28;20030;-51
2024/03/25 03:00:55;;;;;;;9.68;3.33;;;;;;;;;;2036416;29;20019;-51
2024/03/25 03:01:56;;;;;;;9.70;2.70;;;;;;;;;;2040393;28;20418;-51
2024/03/25 03:02:58;;;;;;;10.55;2.92;;;;;;;;;;2059846;28;20453;-51
2024/03/25 03:03:59;;;;;;;8.63;2.72;;;;;;;;;;2059471;28;20034;-51
2024/03/25 03:05:02;;;;;;;9.20;3.55;;;;;;;;;;2064606;28;20070;-52
2024/03/25 03:06:03;;;;;;;9.02;3.13;;;;;;;;;;2063753;28;20043;-50
2024/03/25 03:07:07;;;;;;;9.00;3.08;;;;;;;;;;2063716;28;20023;-50
2024/03/25 03:08:08;;;;;;;11.63;3.47;;;;;;;;;;2064525;28;20019;-52
2024/03/25 03:09:10;;;;;;;10.77;3.00;;;;;;;;;;2063712;28;20366;-49
2024/03/25 03:10:11;;;;;;;14.23;3.50;;;;;;;;;;2063862;28;20026;-49
2024/03/25 03:11:12;;;;;;;10.05;3.42;;;;;;;;;;2064454;28;20462;-49
2024/03/25 03:12:14;;;;;;;9.93;2.88;;;;;;;;;;2063890;28;20483;-50
2024/03/25 03:13:15;;;;;;;11.15;3.25;;;;;;;;;;2059344;28;20073;-50
2024/03/25 03:14:17;;;;;;;12.65;3.42;;;;;;;;;;2061888;28;20493;-52
2024/03/25 03:15:19;;;;;;;13.85;3.47;;;;;;;;;;2063905;28;20365;-53
2024/03/25 03:16:20;;;;;;;10.38;3.22;;;;;;;;;;2063561;28;20023;-51
2024/03/25 03:17:21;;;;;;;11.45;3.80;;;;;;;;;;2057204;28;20030;-51
2024/03/25 03:18:22;;;;;;;10.43;3.30;;;;;;;;;;2055936;28;20019;-52
2024/03/25 03:19:27;;;;;;;11.02;3.28;;;;;;;;;;2055449;28;20065;-50
2024/03/25 03:20:28;;;;;;;12.20;3.00;;;;;;;;;;2063832;28;20027;-51
2024/03/25 03:21:30;;;;;;;8.63;3.35;;;;;;;;;;2064515;28;20014;-53
2024/03/25 03:22:32;;;;;;;7.55;3.10;;;;;;;;;;2064153;28;20022;-52
2024/03/25 03:23:33;;;;;;;9.75;3.22;;;;;;;;;;2064438;28;20034;-48
2024/03/25 03:24:34;;;;;;;11.00;3.35;;;;;;;;;;2064180;28;20053;-51
2024/03/25 03:25:36;;;;;;;8.45;3.13;;;;;;;;;;2064430;28;20657;-51
2024/03/25 03:26:37;;;;;;;12.65;3.15;;;;;;;;;;2064572;28;20527;-51
2024/03/25 03:27:38;;;;;;;11.02;3.67;;;;;;;;;;2060391;28;20462;-52
2024/03/25 03:28:41;;;;;;;11.65;3.25;;;;;;;;;;2056520;28;20034;-50
2024/03/25 03:29:42;;;;;;;13.27;3.35;;;;;;;;;;2064268;28;20065;-51
2024/03/25 03:30:43;;;;;;;11.90;3.60;;;;;;;;;;2064221;28;20117;-52
2024/03/25 03:31:45;;;;;;;9.85;3.67;;;;;;;;;;2064542;28;20030;-50
2024/03/25 03:32:46;;;;;;;9.32;2.97;;;;;;;;;;2064002;28;20500;-51
2024/03/25 03:33:51;;;;;;;12.90;3.95;;;;;;;;;;2064433;28;20455;-53
2024/03/25 03:34:52;;;;;;;12.40;3.53;;;;;;;;;;2064511;28;20023;-53
2024/03/25 03:35:55;;;;;;;7.20;3.42;;;;;;;;;;2064453;28;20098;-52
2024/03/25 03:36:56;;;;;;;10.38;3.35;;;;;;;;;;2064480;28;20461;-51
2024/03/25 03:37:57;;;;;;;12.68;3.50;;;;;;;;;;2064494;28;20007;-52
2024/03/25 03:38:59;;;;;;;15.52;3.70;;;;;;;;;;2064304;28;20077;-54
2024/03/25 03:40:00;;;;;;;7.65;2.83;;;;;;;;;;2064455;28;20014;-51
2024/03/25 03:41:02;;;;;;;10.32;4.00;;;;;;;;;;2063742;28;20098;-52
2024/03/25 03:42:04;;;;;;;14.25;3.97;;;;;;;;;;2064292;28;20030;-52
2024/03/25 03:43:05;;;;;;;15.60;4.03;;;;;;;;;;2059191;28;20019;-48
2024/03/25 03:44:06;;;;;;;9.52;3.53;;;;;;;;;;2062924;28;20041;-51
2024/03/25 03:45:08;;;;;;;12.10;3.83;;;;;;;;;;2061654;28;20013;-51
2024/03/25 03:46:09;;;;;;;7.90;3.30;;;;;;;;;;2063173;28;20019;-51
2024/03/25 03:47:10;;;;;;;15.70;3.70;;;;;;;;;;2064256;28;20034;-51
2024/03/25 03:48:12;;;;;;;9.85;3.53;;;;;;;;;;2064435;28;20095;-53
2024/03/25 03:49:13;;;;;;;11.95;3.75;;;;;;;;;;2063588;28;20090;-51
2024/03/25 03:50:14;;;;;;;6.88;3.25;;;;;;;;;;2063692;28;20066;-52
2024/03/25 03:51:16;;;;;;;13.15;3.67;;;;;;;;;;2063900;28;20057;-51
2024/03/25 03:52:17;;;;;;;8.88;3.60;;;;;;;;;;2063490;28;20401;-51
2024/03/25 03:53:19;;;;;;;13.50;3.25;;;;;;;;;;2061620;28;20065;-51
2024/03/25 03:54:20;;;;;;;9.60;3.63;;;;;;;;;;2063361;28;20033;-51
2024/03/25 03:55:21;;;;;;;11.35;3.50;;;;;;;;;;2063873;28;20081;-52
2024/03/25 03:56:23;;;;;;;9.25;3.28;;;;;;;;;;2060227;28;20030;-51
2024/03/25 03:57:25;;;;;;;9.15;3.83;;;;;;;;;;2056438;28;20019;-53
2024/03/25 03:58:27;;;;;;;13.55;3.72;;;;;;;;;;2063019;28;20397;-51
2024/03/25 03:59:28;;;;;;;12.95;4.30;;;;;;;;;;2063384;28;20050;-51
2024/03/25 04:00:29;;;;;;;9.90;3.38;;;;;;;;;;2060064;28;20118;-53
2024/03/25 04:01:30;;;;;;;10.52;3.38;;;;;;;;;;2062063;28;20022;-53
2024/03/25 04:02:33;;;;;;;10.82;3.72;;;;;;;;;;2063771;28;20042;-53
2024/03/25 04:03:34;;;;;;;10.52;2.90;;;;;;;;;;2063554;28;20038;-53
2024/03/25 04:04:35;;;;;;;10.52;4.05;;;;;;;;;;2055303;28;20031;-54
2024/03/25 04:05:37;;;;;;;11.98;3.35;;;;;;;;;;2063658;28;20034;-52
2024/03/25 04:06:40;;;;;;;12.07;3.47;;;;;;;;;;2064403;28;20023;-54
2024/03/25 04:07:42;;;;;;;13.07;3.45;;;;;;;;;;2064232;28;20528;-54
2024/03/25 04:08:44;;;;;;;11.55;3.88;;;;;;;;;;2064508;28;20034;-54
2024/03/25 04:09:46;;;;;;;9.82;2.97;;;;;;;;;;2064168;28;20037;-54
2024/03/25 04:10:47;;;;;;;12.65;3.58;;;;;;;;;;2058783;28;20084;-52
2024/03/25 04:11:50;;;;;;;10.27;3.50;;;;;;;;;;2063859;28;20018;-53
2024/03/25 04:12:51;;;;;;;9.57;3.13;;;;;;;;;;2064122;28;20033;-54
2024/03/25 04:13:52;;;;;;;12.60;3.63;;;;;;;;;;2064112;28;20102;-53
2024/03/25 04:14:57;;;;;;;10.77;3.65;;;;;;;;;;2064372;28;20081;-53
2024/03/25 04:16:02;;;;;;;10.90;3.28;;;;;;;;;;2062331;28;20034;-52
2024/03/25 04:17:04;;;;;;;12.00;3.70;;;;;;;;;;2063222;28;20057;-54
2024/03/25 04:18:06;;;;;;;13.15;3.80;;;;;;;;;;2063857;28;20072;-52
2024/03/25 04:19:07;;;;;;;9.88;3.15;;;;;;;;;;2063399;28;20878;-53
2024/03/25 04:20:10;;;;;;;10.90;3.55;;;;;;;;;;2064269;28;20480;-53
2024/03/25 04:21:13;;;;;;;14.10;3.78;;;;;;;;;;2056439;28;20019;-54
2024/03/25 04:22:15;;;;;;;14.27;3.75;;;;;;;;;;2059635;28;20420;-52
2024/03/25 04:23:16;;;;;;;10.50;3.35;;;;;;;;;;2063676;28;20030;-54
2024/03/25 04:24:18;;;;;;;11.77;3.67;;;;;;;;;;2063309;28;20014;-54
2024/03/25 04:25:20;;;;;;;10.40;4.15;;;;;;;;;;2063865;28;20026;-53
2024/03/25 04:26:21;;;;;;;14.18;4.05;;;;;;;;;;2064301;28;20057;-54
2024/03/25 04:27:24;;;;;;;14.05;3.60;;;;;;;;;;2063426;28;20046;-53
2024/03/25 04:28:25;;;;;;;10.88;3.42;;;;;;;;;;2062946;28;20090;-53
2024/03/25 04:29:26;;;;;;;12.60;3.30;;;;;;;;;;2056257;28;20015;-53
2024/03/25 04:30:28;;;;;;;12.63;3.53;;;;;;;;;;2060289;28;20401;-54
2024/03/25 04:31:29;;;;;;;10.30;3.50;;;;;;;;;;2064257;28;20030;-53
2024/03/25 04:32:30;;;;;;;14.25;3.63;;;;;;;;;;2063350;28;20469;-53
2024/03/25 04:33:33;;;;;;;10.57;3.28;;;;;;;;;;2063530;28;20092;-54
2024/03/25 04:34:35;;;;;;;12.90;4.22;;;;;;;;;;2063867;28;20028;-53
2024/03/25 04:35:36;;;;;;;11.98;3.47;;;;;;;;;;2063993;28;20508;-53
2024/03/25 04:36:37;;;;;;;12.18;3.20;;;;;;;;;;2064061;28;20029;-51
2024/03/25 04:37:39;;;;;;;12.18;3.65;;;;;;;;;;2064416;28;20060;-49
2024/03/25 04:38:40;;;;;;;12.25;3.83;;;;;;;;;;2064106;28;20072;-51
2024/03/25 04:39:41;;;;;;;16.70;4.15;;;;;;;;;;2063450;28;20026;-50
2024/03/25 04:40:43;;;;;;;13.82;3.58;;;;;;;;;;2063595;28;20069;-52
2024/03/25 04:41:46;;;;;;;16.02;3.33;;;;;;;;;;2063864;28;20050;-53
2024/03/25 04:42:47;;;;;;;11.90;3.58;;;;;;;;;;2064281;28;20451;-52
2024/03/25 04:43:48;;;;;;;12.40;3.80;;;;;;;;;;2064004;28;20030;-51
2024/03/25 04:44:50;;;;;;;14.50;3.70;;;;;;;;;;2063906;28;20098;-51
2024/03/25 04:45:53;;;;;;;14.13;3.35;;;;;;;;;;2062351;28;20512;-50
2024/03/25 04:46:54;;;;;;;16.17;3.78;;;;;;;;;;2065329;28;20065;-50
2024/03/25 04:47:55;;;;;;;11.63;3.70;;;;;;;;;;2064178;28;20034;-49
2024/03/25 04:48:56;;;;;;;12.70;3.20;;;;;;;;;;2065057;28;20042;-50
2024/03/25 04:49:58;;;;;;;13.98;4.07;;;;;;;;;;2064717;28;20385;-53
2024/03/25 04:51:00;;;;;;;12.00;3.88;;;;;;;;;;2055839;28;20077;-49
2024/03/25 04:52:03;;;;;;;13.95;3.60;;;;;;;;;;2049282;28;20031;-54
2024/03/25 04:53:04;;;;;;;11.15;3.97;;;;;;;;;;2061151;28;20041;-53
2024/03/25 04:54:05;;;;;;;11.45;3.42;;;;;;;;;;2065734;28;20043;-51
2024/03/25 04:55:07;;;;;;;12.20;3.28;;;;;;;;;;2065339;28;20362;-53
2024/03/25 04:56:08;;;;;;;10.73;3.95;;;;;;;;;;2065439;28;20030;-54
2024/03/25 04:57:09;;;;;;;15.90;3.10;;;;;;;;;;2065188;28;20033;-53
2024/03/25 04:58:11;;;;;;;11.50;3.47;;;;;;;;;;2065277;28;20026;-52
2024/03/25 04:59:12;;;;;;;14.00;3.25;;;;;;;;;;2064895;28;20022;-52
2024/03/25 05:00:14;;;;;;;13.95;3.35;;;;;;;;;;2062453;28;20019;-53
2024/03/25 05:01:15;;;;;;;14.43;4.15;;;;;;;;;;2064645;28;20023;-53
2024/03/25 05:02:16;;;;;;;12.52;4.05;;;;;;;;;;2057181;28;20469;-52
2024/03/25 05:03:18;;;;;;;14.50;4.00;;;;;;;;;;2064745;28;20014;-52
2024/03/25 05:04:20;;;;;;;10.55;3.65;;;;;;;;;;2065403;28;20034;-53
2024/03/25 05:05:24;;;;;;;12.13;4.10;;;;;;;;;;2063307;28;20390;-52
2024/03/25 05:06:25;;;;;;;12.02;4.03;;;;;;;;;;2062460;28;20485;-53
2024/03/25 05:07:27;;;;;;;12.85;3.58;;;;;;;;;;2060063;28;20488;-53
2024/03/25 05:08:28;;;;;;;12.43;3.30;;;;;;;;;;2058929;28;20058;-52
2024/03/25 05:09:29;;;;;;;16.38;3.85;;;;;;;;;;2059552;28;20029;-52
2024/03/25 05:10:31;;;;;;;16.13;4.78;;;;;;;;;;2060814;28;20072;-48
2024/03/25 05:11:33;;;;;;;16.73;4.25;;;;;;;;;;2065545;28;20421;-53
2024/03/25 05:12:34;;;;;;;13.30;4.00;;;;;;;;;;2065465;28;20011;-53
2024/03/25 05:13:35;;;;;;;16.83;3.80;;;;;;;;;;2065780;28;20041;-55
2024/03/25 05:14:37;;;;;;;12.57;3.50;;;;;;;;;;2065711;28;20101;-53
2024/03/25 05:15:38;;;;;;;12.65;4.38;;;;;;;;;;2065303;28;20150;-54
2024/03/25 05:16:39;;;;;;;10.38;3.67;;;;;;;;;;2062136;28;20049;-55
2024/03/25 05:17:40;;;;;;;15.25;3.88;;;;;;;;;;2063830;28;20026;-53
2024/03/25 05:18:42;;;;;;;9.18;3.40;;;;;;;;;;2065505;28;20099;-50
2024/03/25 05:19:43;;;;;;;14.38;3.67;;;;;;;;;;2065503;28;20021;-54
2024/03/25 05:20:44;;;;;;;14.75;3.92;;;;;;;;;;2065339;28;20069;-53
2024/03/25 05:21:46;;;;;;;12.07;3.20;;;;;;;;;;2063121;28;20025;-50
2024/03/25 05:22:47;;;;;;;13.40;3.97;;;;;;;;;;2064911;28;20421;-53
2024/03/25 05:23:48;;;;;;;10.57;3.53;;;;;;;;;;2061057;28;20030;-53
2024/03/25 05:24:50;;;;;;;17.58;3.42;;;;;;;;;;2060919;28;20037;-53
2024/03/25 05:25:52;;;;;;;8.68;3.22;;;;;;;;;;2058010;28;20049;-50
2024/03/25 05:26:53;;;;;;;15.48;3.38;;;;;;;;;;2061652;28;20018;-53
2024/03/25 05:27:55;;;;;;;14.43;4.03;;;;;;;;;;2061718;28;20065;-53
2024/03/25 05:28:57;;;;;;;13.77;3.95;;;;;;;;;;2062117;28;20014;-51
2024/03/25 05:29:58;;;;;;;11.38;3.95;;;;;;;;;;2058613;28;20393;-53
2024/03/25 05:31:09;;;;;;;15.15;4.15;;;;;;;;;;2059313;28;20485;-53
2024/03/25 05:32:10;;;;;;;16.45;4.88;;;;;;;;;;2062009;28;20413;-53
2024/03/25 05:33:11;;;;;;;14.82;3.80;;;;;;;;;;2064436;28;20370;-54
2024/03/25 05:34:13;;;;;;;16.60;4.00;;;;;;;;;;2064463;28;20030;-50
2024/03/25 05:35:15;;;;;;;11.00;3.67;;;;;;;;;;2064383;28;20018;-52
2024/03/25 05:36:16;;;;;;;11.80;3.83;;;;;;;;;;2064887;28;20022;-53
2024/03/25 05:37:17;;;;;;;14.00;4.25;;;;;;;;;;2064842;28;20648;-55
2024/03/25 05:38:19;;;;;;;14.20;4.68;;;;;;;;;;2065428;28;20466;-54
2024/03/25 05:39:20;;;;;;;14.65;4.50;;;;;;;;;;2064829;28;20477;-54
2024/03/25 05:40:22;;;;;;;12.63;4.45;;;;;;;;;;2058415;28;20037;-51
2024/03/25 05:41:23;;;;;;;14.88;4.30;;;;;;;;;;2050091;28;20015;-54
2024/03/25 05:42:24;;;;;;;11.70;4.13;;;;;;;;;;2048836;28;20019;-65
2024/03/25 05:43:25;;;;;;;16.85;4.18;;;;;;;;;;2063932;28;20017;-49
2024/03/25 05:44:27;;;;;;;8.60;3.63;;;;;;;;;;2057331;28;20478;-50
2024/03/25 05:45:28;;;;;;;12.88;3.67;;;;;;;;;;2063425;28;20018;-50
2024/03/25 05:46:30;;;;;;;16.30;3.88;;;;;;;;;;2065097;28;20014;-49
2024/03/25 05:47:31;;;;;;;14.93;3.92;;;;;;;;;;2064765;28;20046;-50
2024/03/25 05:48:32;;;;;;;19.30;4.25;;;;;;;;;;2064451;28;20513;-50
2024/03/25 05:49:34;;;;;;;10.18;3.63;;;;;;;;;;2064586;28;20033;-49
2024/03/25 05:50:35;;;;;;;11.00;3.97;;;;;;;;;;2064544;28;20379;-49
2024/03/25 05:51:36;;;;;;;12.32;4.00;;;;;;;;;;2062496;28;20022;-50
2024/03/25 05:52:37;;;;;;;15.43;4.45;;;;;;;;;;2071396;28;20069;-49
2024/03/25 05:53:40;;;;;;;16.17;3.65;;;;;;;;;;2056391;28;20022;-49
2024/03/25 05:54:41;;;;;;;11.70;3.53;;;;;;;;;;2056589;28;20054;-50
2024/03/25 05:55:43;;;;;;;11.75;3.88;;;;;;;;;;2064478;28;20027;-49
2024/03/25 05:56:44;;;;;;;12.48;4.07;;;;;;;;;;2064160;28;20026;-50
2024/03/25 05:57:45;;;;;;;15.07;4.70;;;;;;;;;;2064041;28;20101;-49
2024/03/25 05:58:46;;;;;;;15.23;4.63;;;;;;;;;;2064982;28;20065;-50
2024/03/25 05:59:48;;;;;;;16.20;5.13;;;;;;;;;;2064874;28;20339;-49
2024/03/25 06:00:50;;;;;;;14.25;3.97;;;;;;;;;;2064868;28;20405;-49
2024/03/25 06:01:51;;;;;;;14.75;3.70;;;;;;;;;;2065166;28;20015;-51
2024/03/25 06:02:53;;;;;;;10.43;3.58;;;;;;;;;;2062332;28;20242;-49
2024/03/25 06:03:55;;;;;;;12.60;4.53;;;;;;;;;;2056682;28;20054;-48
2024/03/25 06:04:56;;;;;;;15.52;4.15;;;;;;;;;;2064609;28;20065;-50
2024/03/25 06:05:58;;;;;;;13.18;3.75;;;;;;;;;;2064219;28;20019;-49